UAL7280 KSAN-KOAK
Flight info
| Callsign | UAL7280 |
|---|---|
| Flight time | 1h 5m |
| Altitude | 38000 |
| Route | PADRZ2 OROSZ COREZ RGOOD EMZOH4 |
| Aircraft | A320/M-SDE3FGHIRWY/LB1 |
Departure
| Time | 2026-04-20 00:31 |
|---|---|
| Airport | San Diego International Airport (KSAN) |
Arrival
| Time | 2026-04-20 01:36 |
|---|---|
| Airport | San Francisco Bay Oakland International Airport (KOAK) |
| Time | Latitude | Longitude | Altitude | Speed | Heading |
|---|---|---|---|---|---|
| 2026-04-20 00:02 | 32.73377 | -117.20211 | 23 ft | 0 kts | 140° |
| 2026-04-20 00:18 | 32.73389 | -117.20223 | 23 ft | 4 kts | 133° |
| 2026-04-20 00:19 | 32.73404 | -117.20248 | 23 ft | 4 kts | 107° |
| 2026-04-20 00:19 | 32.73405 | -117.20272 | 23 ft | 4 kts | 34° |
| 2026-04-20 00:19 | 32.73399 | -117.20276 | 25 ft | 0 kts | 15° |
| 2026-04-20 00:22 | 32.73442 | -117.20262 | 23 ft | 11 kts | 15° |
| 2026-04-20 00:23 | 32.73524 | -117.20235 | 23 ft | 13 kts | 20° |
| 2026-04-20 00:23 | 32.73535 | -117.20132 | 23 ft | 15 kts | 104° |
| 2026-04-20 00:23 | 32.73504 | -117.20004 | 23 ft | 17 kts | 109° |
| 2026-04-20 00:23 | 32.73467 | -117.19857 | 23 ft | 20 kts | 106° |
| 2026-04-20 00:24 | 32.73426 | -117.19691 | 24 ft | 22 kts | 106° |
| 2026-04-20 00:24 | 32.73381 | -117.19505 | 23 ft | 25 kts | 106° |
| 2026-04-20 00:24 | 32.73333 | -117.19297 | 22 ft | 28 kts | 105° |
| 2026-04-20 00:24 | 32.73277 | -117.19069 | 23 ft | 30 kts | 106° |
| 2026-04-20 00:25 | 32.73226 | -117.18857 | 25 ft | 27 kts | 106° |
| 2026-04-20 00:25 | 32.73175 | -117.18646 | 22 ft | 25 kts | 106° |
| 2026-04-20 00:25 | 32.73122 | -117.18433 | 22 ft | 28 kts | 107° |
| 2026-04-20 00:25 | 32.73065 | -117.18199 | 21 ft | 31 kts | 104° |
| 2026-04-20 00:26 | 32.73028 | -117.18039 | 23 ft | 19 kts | 105° |
| 2026-04-20 00:26 | 32.72989 | -117.17876 | 21 ft | 22 kts | 106° |
| 2026-04-20 00:26 | 32.72950 | -117.17727 | 23 ft | 12 kts | 104° |
| 2026-04-20 00:26 | 32.72956 | -117.17669 | 21 ft | 0 kts | 75° |
| 2026-04-20 00:27 | 32.72958 | -117.17661 | 23 ft | 4 kts | 75° |
| 2026-04-20 00:27 | 32.72980 | -117.17598 | 22 ft | 11 kts | 53° |
| 2026-04-20 00:27 | 32.73034 | -117.17634 | 21 ft | 13 kts | 284° |
| 2026-04-20 00:28 | 32.73037 | -117.17647 | 21 ft | 0 kts | 284° |
| 2026-04-20 00:28 | 32.73037 | -117.17648 | 21 ft | 0 kts | 284° |
| 2026-04-20 00:30 | 32.73037 | -117.17649 | 21 ft | 1 kts | 284° |
| 2026-04-20 00:30 | 32.73066 | -117.17765 | 21 ft | 45 kts | 286° |
| 2026-04-20 00:30 | 32.73215 | -117.18389 | 22 ft | 110 kts | 286° |
| 2026-04-20 00:30 | 32.73482 | -117.19462 | 55 ft | 155 kts | 286° |
| 2026-04-20 00:31 | 32.73793 | -117.20715 | 695 ft | 156 kts | 287° |
| 2026-04-20 00:31 | 32.74294 | -117.21837 | 1471 ft | 152 kts | 306° |
| 2026-04-20 00:31 | 32.74966 | -117.22776 | 2129 ft | 148 kts | 312° |
| 2026-04-20 00:31 | 32.75720 | -117.23678 | 2470 ft | 160 kts | 316° |
| 2026-04-20 00:32 | 32.76598 | -117.24641 | 2678 ft | 186 kts | 312° |
| 2026-04-20 00:32 | 32.77394 | -117.25957 | 3020 ft | 208 kts | 298° |
| 2026-04-20 00:32 | 32.78114 | -117.27557 | 3433 ft | 232 kts | 296° |
| 2026-04-20 00:32 | 32.78899 | -117.29318 | 3882 ft | 257 kts | 296° |
| 2026-04-20 00:33 | 32.79805 | -117.31244 | 4509 ft | 273 kts | 298° |
| 2026-04-20 00:33 | 32.80839 | -117.33179 | 5367 ft | 281 kts | 302° |
| 2026-04-20 00:33 | 32.81990 | -117.35084 | 6266 ft | 287 kts | 305° |
| 2026-04-20 00:33 | 32.83208 | -117.36989 | 7125 ft | 291 kts | 306° |
| 2026-04-20 00:34 | 32.84457 | -117.38901 | 8012 ft | 294 kts | 306° |
| 2026-04-20 00:34 | 32.85723 | -117.40829 | 8920 ft | 297 kts | 307° |
| 2026-04-20 00:34 | 32.87002 | -117.42780 | 9800 ft | 300 kts | 307° |
| 2026-04-20 00:34 | 32.88287 | -117.44754 | 10594 ft | 304 kts | 306° |
| 2026-04-20 00:35 | 32.89613 | -117.46804 | 10980 ft | 324 kts | 306° |
| 2026-04-20 00:35 | 32.91021 | -117.48997 | 11378 ft | 340 kts | 306° |
| 2026-04-20 00:35 | 32.92469 | -117.51255 | 12042 ft | 346 kts | 306° |
| 2026-04-20 00:35 | 32.93920 | -117.53515 | 12756 ft | 350 kts | 306° |
| 2026-04-20 00:36 | 32.95411 | -117.55834 | 13489 ft | 355 kts | 306° |
| 2026-04-20 00:36 | 32.96915 | -117.58179 | 14169 ft | 358 kts | 306° |
| 2026-04-20 00:36 | 32.98434 | -117.60550 | 14817 ft | 362 kts | 305° |
| 2026-04-20 00:36 | 32.99967 | -117.62943 | 15474 ft | 365 kts | 305° |
| 2026-04-20 00:37 | 33.01513 | -117.65355 | 16117 ft | 368 kts | 305° |
| 2026-04-20 00:37 | 33.03072 | -117.67792 | 16758 ft | 371 kts | 305° |
| 2026-04-20 00:37 | 33.04643 | -117.70245 | 17405 ft | 375 kts | 305° |
| 2026-04-20 00:37 | 33.06277 | -117.72684 | 18055 ft | 379 kts | 310° |
| 2026-04-20 00:38 | 33.08226 | -117.74840 | 18644 ft | 384 kts | 317° |
| 2026-04-20 00:38 | 33.10265 | -117.76911 | 19264 ft | 386 kts | 317° |
| 2026-04-20 00:38 | 33.12289 | -117.78968 | 19898 ft | 388 kts | 317° |
| 2026-04-20 00:38 | 33.14348 | -117.81061 | 20542 ft | 390 kts | 317° |
| 2026-04-20 00:39 | 33.16412 | -117.83161 | 21170 ft | 391 kts | 317° |
| 2026-04-20 00:39 | 33.18490 | -117.85272 | 21781 ft | 393 kts | 317° |
| 2026-04-20 00:39 | 33.20582 | -117.87389 | 22399 ft | 395 kts | 317° |
| 2026-04-20 00:39 | 33.22704 | -117.89488 | 22992 ft | 397 kts | 318° |
| 2026-04-20 00:40 | 33.24853 | -117.91577 | 23593 ft | 399 kts | 319° |
| 2026-04-20 00:40 | 33.27022 | -117.93668 | 24087 ft | 401 kts | 319° |
| 2026-04-20 00:40 | 33.29200 | -117.95770 | 24570 ft | 403 kts | 319° |
| 2026-04-20 00:40 | 33.31383 | -117.97886 | 25044 ft | 405 kts | 319° |
| 2026-04-20 00:41 | 33.33576 | -118.00023 | 25507 ft | 407 kts | 319° |
| 2026-04-20 00:41 | 33.35775 | -118.02173 | 25965 ft | 409 kts | 319° |
| 2026-04-20 00:41 | 33.37953 | -118.04306 | 26411 ft | 411 kts | 319° |
| 2026-04-20 00:41 | 33.40173 | -118.06482 | 26837 ft | 414 kts | 319° |
| 2026-04-20 00:42 | 33.42404 | -118.08670 | 27323 ft | 414 kts | 319° |
| 2026-04-20 00:42 | 33.44632 | -118.10855 | 27813 ft | 415 kts | 319° |
| 2026-04-20 00:42 | 33.46867 | -118.13050 | 28280 ft | 416 kts | 319° |
| 2026-04-20 00:42 | 33.49105 | -118.15253 | 28715 ft | 418 kts | 319° |
| 2026-04-20 00:43 | 33.51353 | -118.17468 | 29142 ft | 419 kts | 319° |
| 2026-04-20 00:43 | 33.53612 | -118.19693 | 29565 ft | 421 kts | 319° |
| 2026-04-20 00:43 | 33.55883 | -118.21926 | 29984 ft | 423 kts | 320° |
| 2026-04-20 00:43 | 33.58318 | -118.23927 | 30327 ft | 427 kts | 329° |
| 2026-04-20 00:44 | 33.61000 | -118.25497 | 30639 ft | 431 kts | 334° |
| 2026-04-20 00:44 | 33.63731 | -118.26994 | 30957 ft | 433 kts | 333° |
| 2026-04-20 00:44 | 33.66477 | -118.28504 | 31276 ft | 435 kts | 333° |
| 2026-04-20 00:44 | 33.69232 | -118.30019 | 31607 ft | 436 kts | 333° |
| 2026-04-20 00:45 | 33.71988 | -118.31535 | 32065 ft | 435 kts | 333° |
| 2026-04-20 00:45 | 33.74697 | -118.33029 | 32516 ft | 434 kts | 333° |
| 2026-04-20 00:45 | 33.77444 | -118.34529 | 32973 ft | 433 kts | 334° |
| 2026-04-20 00:45 | 33.80205 | -118.35964 | 33425 ft | 433 kts | 334° |
| 2026-04-20 00:46 | 33.82985 | -118.37357 | 33875 ft | 432 kts | 334° |
| 2026-04-20 00:46 | 33.85759 | -118.38725 | 34298 ft | 431 kts | 334° |
| 2026-04-20 00:46 | 33.88531 | -118.40089 | 34662 ft | 431 kts | 334° |
| 2026-04-20 00:46 | 33.91304 | -118.41464 | 34987 ft | 431 kts | 334° |
| 2026-04-20 00:47 | 33.94071 | -118.42848 | 35302 ft | 431 kts | 333° |
| 2026-04-20 00:47 | 33.96844 | -118.44247 | 35611 ft | 432 kts | 333° |
| 2026-04-20 00:47 | 33.99573 | -118.45634 | 35926 ft | 432 kts | 333° |
| 2026-04-20 00:47 | 34.02345 | -118.47047 | 36213 ft | 433 kts | 333° |
| 2026-04-20 00:48 | 34.05120 | -118.48460 | 36506 ft | 433 kts | 333° |
| 2026-04-20 00:48 | 34.07895 | -118.49872 | 36796 ft | 434 kts | 332° |
| 2026-04-20 00:48 | 34.10677 | -118.51291 | 37079 ft | 434 kts | 332° |
| 2026-04-20 00:48 | 34.13458 | -118.52712 | 37335 ft | 434 kts | 332° |
| 2026-04-20 00:49 | 34.16239 | -118.54132 | 37617 ft | 434 kts | 332° |
| 2026-04-20 00:49 | 34.19029 | -118.55554 | 37887 ft | 435 kts | 332° |
| 2026-04-20 00:49 | 34.21819 | -118.56975 | 37952 ft | 435 kts | 332° |
| 2026-04-20 00:50 | 34.27394 | -118.59813 | 37952 ft | 434 kts | 332° |
| 2026-04-20 00:50 | 34.32957 | -118.62648 | 37950 ft | 434 kts | 332° |
| 2026-04-20 00:51 | 34.38546 | -118.65420 | 37949 ft | 434 kts | 333° |
| 2026-04-20 00:51 | 34.44005 | -118.68356 | 37954 ft | 428 kts | 325° |
| 2026-04-20 00:52 | 34.49160 | -118.71972 | 37957 ft | 428 kts | 324° |
| 2026-04-20 00:52 | 34.54310 | -118.75617 | 37956 ft | 428 kts | 324° |
| 2026-04-20 00:53 | 34.59449 | -118.79270 | 37974 ft | 428 kts | 324° |
| 2026-04-20 00:53 | 34.64594 | -118.82921 | 37975 ft | 428 kts | 325° |
| 2026-04-20 00:54 | 34.69700 | -118.86545 | 37963 ft | 428 kts | 325° |
| 2026-04-20 00:54 | 34.74836 | -118.90197 | 37946 ft | 428 kts | 325° |
| 2026-04-20 00:55 | 34.79978 | -118.93858 | 37945 ft | 428 kts | 325° |
| 2026-04-20 00:55 | 34.85122 | -118.97528 | 37944 ft | 428 kts | 324° |
| 2026-04-20 00:56 | 34.90258 | -119.01199 | 37948 ft | 428 kts | 324° |
| 2026-04-20 00:56 | 34.95394 | -119.04862 | 37948 ft | 428 kts | 324° |
| 2026-04-20 00:57 | 35.00488 | -119.08505 | 37940 ft | 427 kts | 324° |
| 2026-04-20 00:57 | 35.05602 | -119.12174 | 37910 ft | 426 kts | 324° |
| 2026-04-20 00:58 | 35.10711 | -119.15847 | 37911 ft | 426 kts | 324° |
| 2026-04-20 00:58 | 35.15819 | -119.19520 | 37909 ft | 426 kts | 324° |
| 2026-04-20 00:59 | 35.20882 | -119.23172 | 37891 ft | 425 kts | 324° |
| 2026-04-20 00:59 | 35.25976 | -119.26855 | 37904 ft | 425 kts | 324° |
| 2026-04-20 01:00 | 35.31056 | -119.30523 | 37889 ft | 423 kts | 324° |
| 2026-04-20 01:00 | 35.36128 | -119.34191 | 37893 ft | 423 kts | 324° |
| 2026-04-20 01:01 | 35.41188 | -119.37851 | 37896 ft | 423 kts | 324° |
| 2026-04-20 01:01 | 35.46216 | -119.41497 | 37892 ft | 422 kts | 324° |
| 2026-04-20 01:02 | 35.51271 | -119.45175 | 37891 ft | 422 kts | 324° |
| 2026-04-20 01:02 | 35.56242 | -119.48984 | 37906 ft | 418 kts | 317° |
| 2026-04-20 01:03 | 35.60700 | -119.53519 | 37900 ft | 416 kts | 315° |
| 2026-04-20 01:03 | 35.65145 | -119.58053 | 37900 ft | 415 kts | 315° |
| 2026-04-20 01:04 | 35.69557 | -119.62547 | 37908 ft | 414 kts | 315° |
| 2026-04-20 01:04 | 35.73980 | -119.67079 | 37909 ft | 414 kts | 315° |
| 2026-04-20 01:05 | 35.78397 | -119.71617 | 37915 ft | 413 kts | 315° |
| 2026-04-20 01:05 | 35.82817 | -119.76150 | 37911 ft | 413 kts | 315° |
| 2026-04-20 01:06 | 35.87205 | -119.80661 | 37913 ft | 413 kts | 315° |
| 2026-04-20 01:06 | 35.91606 | -119.85228 | 37922 ft | 413 kts | 314° |
| 2026-04-20 01:07 | 35.95815 | -119.90063 | 37683 ft | 418 kts | 311° |
| 2026-04-20 01:07 | 35.97890 | -119.92588 | 37414 ft | 419 kts | 311° |
| 2026-04-20 01:07 | 35.99956 | -119.95116 | 37147 ft | 418 kts | 311° |
| 2026-04-20 01:07 | 36.02027 | -119.97628 | 36879 ft | 416 kts | 311° |
| 2026-04-20 01:08 | 36.04099 | -120.00116 | 36626 ft | 415 kts | 311° |
| 2026-04-20 01:08 | 36.06172 | -120.02586 | 36365 ft | 413 kts | 311° |
| 2026-04-20 01:08 | 36.08210 | -120.05007 | 36115 ft | 411 kts | 312° |
| 2026-04-20 01:08 | 36.10269 | -120.07451 | 35872 ft | 409 kts | 312° |
| 2026-04-20 01:09 | 36.12315 | -120.09881 | 35619 ft | 407 kts | 312° |
| 2026-04-20 01:09 | 36.14354 | -120.12303 | 35371 ft | 405 kts | 311° |
| 2026-04-20 01:09 | 36.16375 | -120.14709 | 35123 ft | 403 kts | 311° |
| 2026-04-20 01:09 | 36.18389 | -120.17109 | 34889 ft | 401 kts | 311° |
| 2026-04-20 01:10 | 36.20394 | -120.19499 | 34664 ft | 399 kts | 311° |
| 2026-04-20 01:10 | 36.24369 | -120.24254 | 34184 ft | 396 kts | 311° |
| 2026-04-20 01:10 | 36.26312 | -120.26590 | 33948 ft | 394 kts | 311° |
| 2026-04-20 01:11 | 36.28266 | -120.28934 | 33616 ft | 388 kts | 311° |
| 2026-04-20 01:11 | 36.30199 | -120.31250 | 33178 ft | 385 kts | 311° |
| 2026-04-20 01:11 | 36.32114 | -120.33542 | 32755 ft | 381 kts | 311° |
| 2026-04-20 01:11 | 36.34015 | -120.35818 | 32336 ft | 378 kts | 311° |
| 2026-04-20 01:12 | 36.35902 | -120.38078 | 31923 ft | 376 kts | 311° |
| 2026-04-20 01:12 | 36.37781 | -120.40334 | 31483 ft | 375 kts | 311° |
| 2026-04-20 01:12 | 36.39669 | -120.42610 | 30855 ft | 381 kts | 311° |
| 2026-04-20 01:12 | 36.41571 | -120.44906 | 30351 ft | 382 kts | 311° |
| 2026-04-20 01:13 | 36.43478 | -120.47206 | 29914 ft | 382 kts | 311° |
| 2026-04-20 01:13 | 36.45384 | -120.49502 | 29631 ft | 383 kts | 311° |
| 2026-04-20 01:13 | 36.47270 | -120.51781 | 29361 ft | 383 kts | 311° |
| 2026-04-20 01:13 | 36.49163 | -120.54071 | 29072 ft | 378 kts | 311° |
| 2026-04-20 01:14 | 36.51045 | -120.56345 | 28703 ft | 376 kts | 311° |
| 2026-04-20 01:14 | 36.52912 | -120.58598 | 28330 ft | 373 kts | 311° |
| 2026-04-20 01:14 | 36.54832 | -120.60880 | 27954 ft | 395 kts | 313° |
| 2026-04-20 01:14 | 36.56914 | -120.63248 | 27546 ft | 412 kts | 314° |
| 2026-04-20 01:15 | 36.59073 | -120.65626 | 27126 ft | 416 kts | 315° |
| 2026-04-20 01:15 | 36.61224 | -120.67960 | 26706 ft | 416 kts | 315° |
| 2026-04-20 01:15 | 36.63403 | -120.70317 | 26270 ft | 414 kts | 315° |
| 2026-04-20 01:15 | 36.65567 | -120.72670 | 25831 ft | 412 kts | 314° |
| 2026-04-20 01:16 | 36.67714 | -120.75030 | 25394 ft | 411 kts | 314° |
| 2026-04-20 01:16 | 36.69844 | -120.77394 | 24928 ft | 409 kts | 314° |
| 2026-04-20 01:16 | 36.71957 | -120.79753 | 24469 ft | 407 kts | 313° |
| 2026-04-20 01:16 | 36.74064 | -120.82107 | 24004 ft | 406 kts | 313° |
| 2026-04-20 01:17 | 36.76161 | -120.84448 | 23545 ft | 404 kts | 313° |
| 2026-04-20 01:17 | 36.78255 | -120.86781 | 23031 ft | 403 kts | 314° |
| 2026-04-20 01:17 | 36.80313 | -120.89066 | 22584 ft | 400 kts | 314° |
| 2026-04-20 01:17 | 36.82394 | -120.91368 | 22121 ft | 398 kts | 314° |
| 2026-04-20 01:18 | 36.84460 | -120.93648 | 21876 ft | 396 kts | 314° |
| 2026-04-20 01:18 | 36.86526 | -120.95930 | 21791 ft | 398 kts | 314° |
| 2026-04-20 01:18 | 36.88590 | -120.98219 | 21249 ft | 389 kts | 313° |
| 2026-04-20 01:18 | 36.90553 | -121.00390 | 21014 ft | 367 kts | 313° |
| 2026-04-20 01:19 | 36.92436 | -121.02475 | 20414 ft | 357 kts | 313° |
| 2026-04-20 01:19 | 36.94281 | -121.04528 | 19698 ft | 353 kts | 313° |
| 2026-04-20 01:19 | 36.96098 | -121.06554 | 19144 ft | 345 kts | 313° |
| 2026-04-20 01:19 | 36.97857 | -121.08517 | 18773 ft | 333 kts | 313° |
| 2026-04-20 01:20 | 36.99536 | -121.10390 | 18409 ft | 323 kts | 313° |
| 2026-04-20 01:20 | 37.01189 | -121.12235 | 18018 ft | 315 kts | 313° |
| 2026-04-20 01:20 | 37.02825 | -121.14063 | 17646 ft | 316 kts | 313° |
| 2026-04-20 01:20 | 37.04466 | -121.15902 | 17350 ft | 317 kts | 313° |
| 2026-04-20 01:21 | 37.06102 | -121.17738 | 16989 ft | 315 kts | 313° |
| 2026-04-20 01:21 | 37.07728 | -121.19559 | 16648 ft | 313 kts | 313° |
| 2026-04-20 01:21 | 37.09349 | -121.21374 | 16294 ft | 313 kts | 313° |
| 2026-04-20 01:21 | 37.10971 | -121.23193 | 15939 ft | 313 kts | 313° |
| 2026-04-20 01:22 | 37.12571 | -121.24987 | 15603 ft | 313 kts | 313° |
| 2026-04-20 01:22 | 37.14189 | -121.26811 | 15240 ft | 313 kts | 312° |
| 2026-04-20 01:22 | 37.15788 | -121.28653 | 14991 ft | 314 kts | 312° |
| 2026-04-20 01:22 | 37.17422 | -121.30565 | 14994 ft | 326 kts | 311° |
| 2026-04-20 01:23 | 37.19086 | -121.32515 | 14990 ft | 329 kts | 312° |
| 2026-04-20 01:23 | 37.20758 | -121.34473 | 14622 ft | 328 kts | 312° |
| 2026-04-20 01:23 | 37.22426 | -121.36419 | 13915 ft | 327 kts | 312° |
| 2026-04-20 01:23 | 37.24092 | -121.38356 | 13185 ft | 326 kts | 312° |
| 2026-04-20 01:24 | 37.25741 | -121.40273 | 12632 ft | 319 kts | 313° |
| 2026-04-20 01:24 | 37.27317 | -121.42101 | 12290 ft | 307 kts | 313° |
| 2026-04-20 01:24 | 37.28856 | -121.43888 | 11948 ft | 296 kts | 313° |
| 2026-04-20 01:24 | 37.30343 | -121.45617 | 11607 ft | 290 kts | 313° |
| 2026-04-20 01:25 | 37.31829 | -121.47354 | 11281 ft | 293 kts | 313° |
| 2026-04-20 01:25 | 37.33305 | -121.49082 | 10948 ft | 286 kts | 313° |
| 2026-04-20 01:25 | 37.34743 | -121.50764 | 10624 ft | 280 kts | 313° |
| 2026-04-20 01:25 | 37.36159 | -121.52424 | 10326 ft | 278 kts | 313° |
| 2026-04-20 01:26 | 37.37573 | -121.54085 | 9991 ft | 278 kts | 313° |
| 2026-04-20 01:26 | 37.39015 | -121.55768 | 9367 ft | 296 kts | 314° |
| 2026-04-20 01:26 | 37.40527 | -121.57499 | 9030 ft | 293 kts | 315° |
| 2026-04-20 01:26 | 37.42056 | -121.59238 | 8965 ft | 297 kts | 315° |
| 2026-04-20 01:27 | 37.43588 | -121.60989 | 8950 ft | 297 kts | 313° |
| 2026-04-20 01:27 | 37.44858 | -121.62928 | 8966 ft | 280 kts | 302° |
| 2026-04-20 01:27 | 37.45969 | -121.64866 | 8977 ft | 266 kts | 302° |
| 2026-04-20 01:27 | 37.47028 | -121.66715 | 8969 ft | 254 kts | 301° |
| 2026-04-20 01:28 | 37.48048 | -121.68507 | 8972 ft | 251 kts | 301° |
| 2026-04-20 01:28 | 37.49059 | -121.70289 | 8974 ft | 255 kts | 301° |
| 2026-04-20 01:28 | 37.50166 | -121.72260 | 8929 ft | 292 kts | 303° |
| 2026-04-20 01:28 | 37.51355 | -121.74357 | 8964 ft | 304 kts | 302° |
| 2026-04-20 01:29 | 37.52594 | -121.76533 | 8954 ft | 305 kts | 301° |
| 2026-04-20 01:29 | 37.53533 | -121.78890 | 8966 ft | 299 kts | 285° |
| 2026-04-20 01:29 | 37.54211 | -121.81369 | 8957 ft | 298 kts | 284° |
| 2026-04-20 01:29 | 37.54876 | -121.83858 | 8379 ft | 305 kts | 284° |
| 2026-04-20 01:30 | 37.55554 | -121.86446 | 7554 ft | 315 kts | 283° |
| 2026-04-20 01:30 | 37.56237 | -121.89057 | 6739 ft | 314 kts | 284° |
| 2026-04-20 01:30 | 37.56918 | -121.91651 | 6173 ft | 306 kts | 284° |
| 2026-04-20 01:30 | 37.57355 | -121.93301 | 6066 ft | 292 kts | 284° |
| 2026-04-20 01:31 | 37.58201 | -121.96480 | 5318 ft | 287 kts | 283° |
| 2026-04-20 01:31 | 37.58832 | -121.98883 | 4556 ft | 291 kts | 283° |
| 2026-04-20 01:31 | 37.59458 | -122.01273 | 4100 ft | 281 kts | 284° |
| 2026-04-20 01:31 | 37.60057 | -122.03543 | 3656 ft | 272 kts | 284° |
| 2026-04-20 01:32 | 37.60635 | -122.05711 | 3511 ft | 251 kts | 284° |
| 2026-04-20 01:32 | 37.61170 | -122.07721 | 3155 ft | 235 kts | 282° |
| 2026-04-20 01:32 | 37.61631 | -122.09608 | 2869 ft | 213 kts | 283° |
| 2026-04-20 01:32 | 37.62384 | -122.11084 | 2788 ft | 195 kts | 315° |
| 2026-04-20 01:33 | 37.63547 | -122.11966 | 2380 ft | 193 kts | 329° |
| 2026-04-20 01:33 | 37.64642 | -122.12733 | 2162 ft | 166 kts | 316° |
| 2026-04-20 01:33 | 37.65363 | -122.13750 | 1883 ft | 148 kts | 302° |
| 2026-04-20 01:33 | 37.65960 | -122.14767 | 1640 ft | 141 kts | 299° |
| 2026-04-20 01:34 | 37.66523 | -122.15759 | 1366 ft | 137 kts | 301° |
| 2026-04-20 01:34 | 37.67089 | -122.16729 | 1023 ft | 137 kts | 303° |
| 2026-04-20 01:34 | 37.67646 | -122.17650 | 842 ft | 129 kts | 305° |
| 2026-04-20 01:34 | 37.68218 | -122.18507 | 643 ft | 133 kts | 308° |
| 2026-04-20 01:35 | 37.68806 | -122.19388 | 491 ft | 128 kts | 306° |
| 2026-04-20 01:35 | 37.69372 | -122.20246 | 300 ft | 126 kts | 307° |
| 2026-04-20 01:35 | 37.69934 | -122.21095 | 110 ft | 125 kts | 307° |
| 2026-04-20 01:35 | 37.70487 | -122.21928 | 14 ft | 116 kts | 307° |
| 2026-04-20 01:36 | 37.70911 | -122.22571 | 8 ft | 72 kts | 310° |
| 2026-04-20 01:36 | 37.71134 | -122.22908 | 10 ft | 21 kts | 309° |
| 2026-04-20 01:36 | 37.71236 | -122.23033 | 10 ft | 21 kts | 325° |
| 2026-04-20 01:36 | 37.71369 | -122.23117 | 9 ft | 22 kts | 340° |
| 2026-04-20 01:37 | 37.71469 | -122.23145 | 9 ft | 15 kts | 348° |
| 2026-04-20 01:37 | 37.71464 | -122.23022 | 9 ft | 16 kts | 130° |
| 2026-04-20 01:37 | 37.71387 | -122.22906 | 9 ft | 19 kts | 130° |
| 2026-04-20 01:37 | 37.71296 | -122.22771 | 9 ft | 22 kts | 130° |
| 2026-04-20 01:38 | 37.71232 | -122.22676 | 10 ft | 21 kts | 130° |
| 2026-04-20 01:38 | 37.71110 | -122.22494 | 10 ft | 16 kts | 130° |
| 2026-04-20 01:38 | 37.71143 | -122.22387 | 9 ft | 16 kts | 36° |
| 2026-04-20 01:38 | 37.71238 | -122.22288 | 10 ft | 19 kts | 40° |
| 2026-04-20 01:39 | 37.71287 | -122.22181 | 9 ft | 14 kts | 116° |
| 2026-04-20 01:39 | 37.71217 | -122.22077 | 9 ft | 17 kts | 130° |
| 2026-04-20 01:39 | 37.71164 | -122.21999 | 9 ft | 19 kts | 130° |
| 2026-04-20 01:39 | 37.71077 | -122.21868 | 9 ft | 15 kts | 124° |
| 2026-04-20 01:40 | 37.71152 | -122.21752 | 9 ft | 10 kts | 34° |
| 2026-04-20 01:40 | 37.71178 | -122.21699 | 9 ft | 4 kts | 116° |
| 2026-04-20 01:40 | 37.71157 | -122.21674 | 10 ft | 5 kts | 139° |
| 2026-04-20 01:40 | 37.71142 | -122.21657 | 9 ft | 1 kts | 139° |
| 2026-04-20 01:41 | 37.71140 | -122.21656 | 9 ft | 0 kts | 140° |